createdAt,value
2017-12-19T00:00:30.242Z,108.70
2017-12-19T00:01:30.252Z,110.00
2017-12-19T00:02:30.277Z,114.30
2017-12-19T00:03:30.295Z,111.10
2017-12-19T00:04:30.308Z,111.70
2017-12-19T00:05:30.333Z,118.60
2017-12-19T00:06:30.350Z,111.70
2017-12-19T00:07:30.369Z,108.80
2017-12-19T00:08:30.382Z,104.10
2017-12-19T00:09:30.406Z,108.30
2017-12-19T00:10:30.418Z,105.80
2017-12-19T00:11:30.443Z,102.60
2017-12-19T00:12:30.459Z,105.70
2017-12-19T00:13:30.478Z,107.50
2017-12-19T00:14:30.492Z,104.20
2017-12-19T00:15:30.516Z,100.50
2017-12-19T00:16:30.528Z,108.20
2017-12-19T00:17:30.553Z,111.80
2017-12-19T00:18:30.564Z,99.10
2017-12-19T00:19:30.589Z,106.00
2017-12-19T00:20:30.601Z,105.10
2017-12-19T00:21:30.620Z,108.70
2017-12-19T00:22:30.644Z,101.90
2017-12-19T00:23:30.662Z,95.70
2017-12-19T00:24:30.675Z,97.50
2017-12-19T00:25:30.692Z,95.40
2017-12-19T00:26:30.718Z,101.20
2017-12-19T00:27:30.735Z,104.10
2017-12-19T00:28:30.749Z,95.90
2017-12-19T00:29:30.766Z,96.90
2017-12-19T00:30:30.790Z,108.70
2017-12-19T00:31:30.809Z,94.50
2017-12-19T00:32:30.821Z,100.80
2017-12-19T00:33:30.839Z,95.00
2017-12-19T00:34:30.864Z,95.70
2017-12-19T00:35:30.883Z,95.60
2017-12-19T00:36:30.895Z,97.80
2017-12-19T00:37:30.913Z,95.30
2017-12-19T00:38:30.938Z,97.60
2017-12-19T00:39:30.955Z,96.60
2017-12-19T00:40:30.969Z,92.30
2017-12-19T00:41:30.986Z,93.90
2017-12-19T00:42:31.010Z,90.90
2017-12-19T00:43:31.023Z,87.80
2017-12-19T00:44:31.048Z,95.50
2017-12-19T00:45:31.059Z,90.20
2017-12-19T00:46:31.084Z,89.60
2017-12-19T00:47:31.097Z,92.40
2017-12-19T00:48:31.121Z,95.90
2017-12-19T00:49:31.133Z,89.00
2017-12-19T00:50:31.157Z,82.80
2017-12-19T00:51:31.169Z,85.60
2017-12-19T00:52:31.193Z,93.60
2017-12-19T00:53:31.206Z,92.70
2017-12-19T00:54:31.230Z,96.40
2017-12-19T00:55:31.244Z,85.30
2017-12-19T00:56:31.267Z,87.80
2017-12-19T00:57:31.280Z,86.80
2017-12-19T00:58:31.303Z,94.40
2017-12-19T00:59:31.323Z,97.40
2017-12-19T01:00:31.335Z,95.20
2017-12-19T01:01:31.360Z,93.60
2017-12-19T01:02:31.371Z,87.90
2017-12-19T01:03:31.397Z,91.80
2017-12-19T01:04:31.408Z,91.50
2017-12-19T01:05:31.431Z,92.30
2017-12-19T01:06:31.445Z,91.70
2017-12-19T01:07:31.468Z,84.00
2017-12-19T01:08:31.482Z,88.30
2017-12-19T01:09:31.503Z,88.60
2017-12-19T01:10:31.518Z,95.80
2017-12-19T01:11:31.541Z,88.20
2017-12-19T01:12:31.554Z,85.40
2017-12-19T01:13:31.577Z,89.00
2017-12-19T01:14:31.590Z,83.10
2017-12-19T01:15:31.615Z,85.30
2017-12-19T01:16:31.629Z,84.60
2017-12-19T01:17:31.646Z,91.30
2017-12-19T01:18:31.669Z,88.70
2017-12-19T01:19:31.687Z,86.10
2017-12-19T01:20:31.706Z,93.20
2017-12-19T01:21:31.717Z,80.70
2017-12-19T01:22:31.741Z,88.20
2017-12-19T01:23:31.760Z,92.10
2017-12-19T01:24:31.809Z,92.00
2017-12-19T01:25:31.790Z,89.40
2017-12-19T01:26:31.817Z,82.50
2017-12-19T01:27:31.832Z,85.80
2017-12-19T01:28:31.847Z,89.90
2017-12-19T01:29:31.863Z,88.40
2017-12-19T01:30:31.888Z,84.30
2017-12-19T01:31:31.908Z,87.10
2017-12-19T01:32:31.917Z,86.80
2017-12-19T01:33:31.952Z,85.30
2017-12-19T01:34:31.960Z,86.70
2017-12-19T01:35:31.973Z,86.40
2017-12-19T01:36:31.992Z,83.40
2017-12-19T01:37:32.009Z,79.70
2017-12-19T01:38:32.034Z,81.70
2017-12-19T01:39:32.052Z,82.00
2017-12-19T01:40:32.121Z,83.50
2017-12-19T01:41:32.089Z,88.10
2017-12-19T01:42:32.102Z,86.20
2017-12-19T01:43:32.134Z,78.60
2017-12-19T01:44:32.139Z,79.30
2017-12-19T01:45:32.160Z,80.90
2017-12-19T01:46:32.176Z,83.90
2017-12-19T01:47:32.193Z,79.60
2017-12-19T01:48:32.218Z,78.70
2017-12-19T01:49:32.229Z,78.50
2017-12-19T01:50:32.248Z,76.80
2017-12-19T01:51:32.272Z,85.10
2017-12-19T01:52:32.291Z,83.60
2017-12-19T01:53:32.307Z,76.40
2017-12-19T01:54:32.322Z,77.00
2017-12-19T01:55:32.340Z,77.70
2017-12-19T01:56:32.364Z,81.70
2017-12-19T01:57:32.382Z,79.20
2017-12-19T01:58:32.396Z,82.60
2017-12-19T01:59:32.414Z,78.20
2017-12-19T02:00:32.438Z,78.20
2017-12-19T02:01:32.456Z,85.30
2017-12-19T02:02:32.470Z,78.30
2017-12-19T02:03:32.494Z,78.80
2017-12-19T02:04:32.507Z,89.10
2017-12-19T02:05:32.523Z,85.00
2017-12-19T02:06:32.547Z,77.10
2017-12-19T02:07:32.560Z,69.80
2017-12-19T02:08:32.578Z,78.60
2017-12-19T02:09:32.598Z,80.30
2017-12-19T02:10:32.616Z,76.70
2017-12-19T02:11:32.634Z,87.10
2017-12-19T02:12:32.657Z,76.00
2017-12-19T02:13:32.675Z,80.20
2017-12-19T02:14:32.689Z,71.40
2017-12-19T02:15:32.708Z,72.40
2017-12-19T02:16:32.732Z,81.20
2017-12-19T02:17:32.749Z,80.90
2017-12-19T02:18:32.762Z,79.60
2017-12-19T02:19:32.786Z,76.60
2017-12-19T02:20:32.805Z,82.60
2017-12-19T02:21:32.821Z,76.70
2017-12-19T02:22:32.835Z,75.70
2017-12-19T02:23:32.860Z,84.40
2017-12-19T02:24:32.872Z,77.00
2017-12-19T02:25:32.895Z,74.50
2017-12-19T02:26:32.914Z,72.70
2017-12-19T02:27:32.927Z,76.50
2017-12-19T02:28:32.951Z,81.50
2017-12-19T02:29:32.963Z,77.40
2017-12-19T02:30:32.987Z,79.10
2017-12-19T02:31:33.017Z,68.70
2017-12-19T02:32:33.030Z,70.90
2017-12-19T02:33:33.036Z,77.10
2017-12-19T02:34:33.061Z,77.40
2017-12-19T02:35:33.073Z,72.80
2017-12-19T02:36:33.096Z,74.10
2017-12-19T02:37:33.177Z,78.70
2017-12-19T02:38:33.132Z,77.80
2017-12-19T02:39:33.156Z,73.20
2017-12-19T02:40:33.171Z,78.50
2017-12-19T02:41:33.182Z,78.40
2017-12-19T02:42:33.207Z,79.50
2017-12-19T02:43:33.225Z,73.90
2017-12-19T02:44:33.237Z,77.00
2017-12-19T02:45:33.260Z,70.90
2017-12-19T02:46:33.274Z,72.40
2017-12-19T02:47:33.303Z,79.60
2017-12-19T02:48:33.309Z,76.30
2017-12-19T02:49:33.332Z,79.40
2017-12-19T02:50:33.346Z,80.40
2017-12-19T02:51:33.370Z,76.30
2017-12-19T02:52:33.384Z,76.90
2017-12-19T02:53:33.406Z,88.30
2017-12-19T02:54:33.423Z,77.30
2017-12-19T02:55:33.437Z,73.60
2017-12-19T02:56:33.455Z,69.90
2017-12-19T02:57:33.472Z,75.40
2017-12-19T02:58:33.496Z,74.60
2017-12-19T02:59:33.509Z,75.50
2017-12-19T03:00:33.533Z,77.70
2017-12-19T03:01:33.551Z,74.10
2017-12-19T03:02:33.563Z,76.40
2017-12-19T03:03:33.581Z,73.40
2017-12-19T03:04:33.606Z,76.60
2017-12-19T03:05:33.622Z,79.60
2017-12-19T03:06:33.636Z,78.50
2017-12-19T03:07:33.659Z,81.70
2017-12-19T03:08:33.671Z,82.30
2017-12-19T03:09:33.693Z,81.90
2017-12-19T03:10:33.713Z,87.90
2017-12-19T03:11:33.725Z,83.00
2017-12-19T03:12:33.744Z,82.40
2017-12-19T03:13:33.760Z,81.20
2017-12-19T03:14:33.785Z,81.80
2017-12-19T03:15:33.798Z,79.00
2017-12-19T03:16:33.821Z,84.50
2017-12-19T03:17:33.837Z,92.50
2017-12-19T03:18:33.850Z,96.60
2017-12-19T03:19:33.869Z,93.10
2017-12-19T03:20:33.952Z,92.30
2017-12-19T03:21:33.910Z,83.00
2017-12-19T03:22:33.924Z,81.60
2017-12-19T03:23:33.948Z,80.90
2017-12-19T03:24:33.959Z,78.70
2017-12-19T03:25:33.977Z,84.70
2017-12-19T03:26:34.000Z,88.20
2017-12-19T03:27:34.012Z,75.40
2017-12-19T03:28:34.031Z,83.50
2017-12-19T03:29:34.049Z,78.60
2017-12-19T03:30:34.068Z,83.60
2017-12-19T03:31:34.086Z,87.50
2017-12-19T03:32:34.109Z,80.00
2017-12-19T03:33:34.121Z,81.90
2017-12-19T03:34:34.145Z,78.50
2017-12-19T03:35:34.158Z,80.70
2017-12-19T03:36:34.181Z,77.90
2017-12-19T03:37:34.195Z,85.10
2017-12-19T03:38:34.218Z,88.50
2017-12-19T03:39:34.236Z,103.10
2017-12-19T03:40:34.248Z,98.30
2017-12-19T03:41:34.265Z,92.60
2017-12-19T03:42:34.290Z,81.80
2017-12-19T03:43:34.308Z,80.80
2017-12-19T03:44:34.320Z,84.80
2017-12-19T03:45:34.339Z,79.30
2017-12-19T03:46:34.363Z,81.80
2017-12-19T03:47:34.382Z,82.30
2017-12-19T03:48:34.394Z,82.70
2017-12-19T03:49:34.417Z,80.40
2017-12-19T03:50:34.428Z,82.00
2017-12-19T03:51:34.452Z,76.60
2017-12-19T03:52:34.465Z,78.50
2017-12-19T03:53:34.488Z,77.60
2017-12-19T03:54:34.500Z,73.10
2017-12-19T03:55:34.519Z,85.20
2017-12-19T03:56:34.544Z,70.60
2017-12-19T03:57:34.560Z,79.60
2017-12-19T03:58:34.573Z,79.90
2017-12-19T03:59:34.592Z,75.00
2017-12-19T04:00:34.615Z,73.70
2017-12-19T04:01:34.633Z,79.00
2017-12-19T04:02:34.645Z,77.60
2017-12-19T04:03:34.670Z,90.10
2017-12-19T04:04:34.681Z,79.40
2017-12-19T04:05:34.699Z,79.60
2017-12-19T04:06:34.723Z,78.40
2017-12-19T04:07:34.741Z,85.20
2017-12-19T04:08:34.753Z,85.50
2017-12-19T04:09:34.770Z,82.50
2017-12-19T04:10:34.804Z,79.70
2017-12-19T04:11:34.807Z,76.90
2017-12-19T04:12:34.832Z,80.90
2017-12-19T04:13:34.843Z,83.70
2017-12-19T04:14:34.866Z,77.30
2017-12-19T04:15:34.879Z,80.40
2017-12-19T04:16:34.903Z,80.30
2017-12-19T04:17:34.914Z,75.80
2017-12-19T04:18:34.938Z,71.80
2017-12-19T04:19:34.956Z,74.50
2017-12-19T04:20:34.970Z,94.30
2017-12-19T04:21:34.986Z,88.40
2017-12-19T04:22:35.012Z,79.40
2017-12-19T04:23:35.028Z,82.90
2017-12-19T04:24:35.040Z,76.70
2017-12-19T04:25:35.057Z,79.00
2017-12-19T04:26:35.080Z,74.20
2017-12-19T04:27:35.101Z,73.80
2017-12-19T04:28:35.111Z,79.20
2017-12-19T04:29:35.134Z,78.60
2017-12-19T04:30:35.147Z,77.70
2017-12-19T04:31:35.171Z,75.60
2017-12-19T04:32:35.183Z,85.90
2017-12-19T04:33:35.206Z,84.00
2017-12-19T04:34:35.220Z,81.70
2017-12-19T04:35:35.237Z,82.70
2017-12-19T04:36:35.261Z,91.30
2017-12-19T04:37:35.272Z,84.00
2017-12-19T04:38:35.296Z,88.20
2017-12-19T04:39:35.309Z,78.10
2017-12-19T04:40:35.331Z,89.30
2017-12-19T04:41:35.344Z,91.80
2017-12-19T04:42:35.368Z,87.20
2017-12-19T04:43:35.386Z,76.90
2017-12-19T04:44:35.399Z,86.10
2017-12-19T04:45:35.421Z,82.40
2017-12-19T04:46:35.434Z,83.00
2017-12-19T04:47:35.458Z,81.80
2017-12-19T04:48:35.470Z,87.50
2017-12-19T04:49:35.492Z,92.20
2017-12-19T04:50:35.506Z,89.70
2017-12-19T04:51:35.530Z,82.90
2017-12-19T04:52:35.542Z,83.60
2017-12-19T04:53:35.565Z,93.70
2017-12-19T04:54:35.579Z,93.20
2017-12-19T04:55:35.602Z,88.80
2017-12-19T04:56:35.614Z,83.90
2017-12-19T04:57:35.637Z,80.90
2017-12-19T04:58:35.650Z,92.50
2017-12-19T04:59:35.680Z,100.80
2017-12-19T05:00:35.687Z,88.90
2017-12-19T05:01:35.703Z,93.20
2017-12-19T05:02:35.727Z,87.50
2017-12-19T05:03:35.745Z,91.30
2017-12-19T05:04:35.760Z,100.60
2017-12-19T05:05:35.776Z,110.80
2017-12-19T05:06:35.800Z,109.00
2017-12-19T05:07:35.818Z,99.50
2017-12-19T05:08:35.834Z,105.40
2017-12-19T05:09:35.848Z,106.90
2017-12-19T05:10:35.872Z,106.30
2017-12-19T05:11:35.890Z,110.70
2017-12-19T05:12:35.903Z,103.40
2017-12-19T05:13:35.920Z,109.10
2017-12-19T05:14:35.945Z,98.00
2017-12-19T05:15:35.963Z,107.60
2017-12-19T05:16:35.975Z,125.00
2017-12-19T05:17:35.992Z,116.80
2017-12-19T05:18:36.015Z,109.60
2017-12-19T05:19:36.033Z,118.30
2017-12-19T05:20:36.049Z,114.70
2017-12-19T05:21:36.064Z,112.80
2017-12-19T05:22:36.088Z,114.00
2017-12-19T05:23:36.105Z,105.90
2017-12-19T05:24:36.120Z,118.50
2017-12-19T05:25:36.138Z,118.30
2017-12-19T05:26:36.161Z,116.20
2017-12-19T05:27:36.180Z,116.00
2017-12-19T05:28:36.193Z,119.40
2017-12-19T05:29:36.209Z,122.40
2017-12-19T05:30:36.233Z,116.30
2017-12-19T05:31:36.245Z,119.80
2017-12-19T05:32:36.270Z,114.10
2017-12-19T05:33:36.282Z,121.50
2017-12-19T05:34:36.306Z,118.40
2017-12-19T05:35:36.318Z,116.30
2017-12-19T05:36:36.342Z,117.80
2017-12-19T05:37:36.354Z,118.30
2017-12-19T05:38:36.378Z,116.70
2017-12-19T05:39:36.390Z,119.60
2017-12-19T05:40:36.434Z,118.20
2017-12-19T05:41:36.427Z,120.90
2017-12-19T05:42:36.451Z,132.10
2017-12-19T05:43:36.464Z,126.00
2017-12-19T05:44:36.487Z,111.80
2017-12-19T05:45:36.498Z,107.10
2017-12-19T05:46:36.523Z,116.50
2017-12-19T05:47:36.542Z,127.80
2017-12-19T05:48:36.554Z,105.50
2017-12-19T05:49:36.571Z,117.40
2017-12-19T05:50:36.590Z,118.10
2017-12-19T05:51:36.609Z,120.30
2017-12-19T05:52:36.680Z,110.10
2017-12-19T05:53:36.649Z,124.50
2017-12-19T05:54:36.661Z,118.20
2017-12-19T05:55:36.686Z,135.40
2017-12-19T05:56:36.699Z,121.90
2017-12-19T05:57:36.722Z,113.70
2017-12-19T05:58:36.737Z,114.70
2017-12-19T05:59:36.759Z,112.10
2017-12-19T06:00:36.772Z,120.70
2017-12-19T06:01:36.795Z,114.70
2017-12-19T06:02:36.811Z,110.20
2017-12-19T06:03:36.833Z,118.00
2017-12-19T06:04:36.845Z,124.70
2017-12-19T06:05:36.867Z,122.80
2017-12-19T06:06:36.886Z,130.60
2017-12-19T06:07:36.900Z,133.60
2017-12-19T06:08:36.919Z,126.30
2017-12-19T06:09:36.935Z,124.40
2017-12-19T06:10:36.959Z,125.30
2017-12-19T06:11:36.977Z,143.20
2017-12-19T06:12:36.991Z,146.30
2017-12-19T06:13:37.042Z,142.70
2017-12-19T06:14:37.032Z,144.70
2017-12-19T06:15:37.060Z,149.50
2017-12-19T06:16:37.064Z,138.10
2017-12-19T06:17:37.143Z,146.60
2017-12-19T06:18:37.105Z,145.50
2017-12-19T06:19:37.122Z,147.40
2017-12-19T06:20:37.136Z,150.40
2017-12-19T06:21:37.160Z,150.00
2017-12-19T06:22:37.177Z,160.40
2017-12-19T06:23:37.190Z,158.40
2017-12-19T06:24:37.209Z,146.90
2017-12-19T06:25:37.227Z,140.60
2017-12-19T06:26:37.251Z,125.40
2017-12-19T06:27:37.267Z,139.60
2017-12-19T06:28:37.281Z,135.80
2017-12-19T06:29:37.298Z,142.40
2017-12-19T06:30:37.322Z,121.30
2017-12-19T06:31:37.341Z,130.30
2017-12-19T06:32:37.353Z,135.00
2017-12-19T06:33:37.371Z,134.80
2017-12-19T06:34:37.395Z,133.70
2017-12-19T06:35:37.407Z,152.80
2017-12-19T06:36:37.431Z,146.40
2017-12-19T06:37:37.448Z,156.70
2017-12-19T06:38:37.461Z,138.30
2017-12-19T06:39:37.490Z,131.60
2017-12-19T06:40:37.504Z,149.20
2017-12-19T06:41:37.521Z,144.20
2017-12-19T06:42:37.541Z,136.60
2017-12-19T06:43:37.553Z,122.80
2017-12-19T06:44:37.577Z,138.40
2017-12-19T06:45:37.589Z,155.70
2017-12-19T06:46:37.612Z,152.70
2017-12-19T06:47:37.674Z,145.50
2017-12-19T06:48:37.656Z,141.20
2017-12-19T06:49:37.661Z,153.90
2017-12-19T06:50:37.684Z,157.20
2017-12-19T06:51:37.737Z,159.70
2017-12-19T06:52:37.722Z,156.40
2017-12-19T06:53:37.733Z,141.80
2017-12-19T06:54:37.816Z,123.20
2017-12-19T06:55:37.771Z,136.60
2017-12-19T06:56:37.790Z,128.50
2017-12-19T06:57:37.812Z,123.30
2017-12-19T06:58:37.826Z,120.70
2017-12-19T06:59:37.844Z,123.00
2017-12-19T07:00:37.876Z,124.20
2017-12-19T07:01:37.879Z,114.20
2017-12-19T07:02:37.902Z,116.90
2017-12-19T07:03:37.917Z,124.00
2017-12-19T07:04:37.941Z,123.40
2017-12-19T07:05:37.952Z,116.00
2017-12-19T07:06:37.976Z,130.00
2017-12-19T07:07:37.994Z,137.10
2017-12-19T07:08:38.006Z,138.90
2017-12-19T07:09:38.030Z,130.00
2017-12-19T07:10:38.049Z,133.20
2017-12-19T07:11:38.062Z,122.90
2017-12-19T07:12:38.078Z,139.50
2017-12-19T07:13:38.098Z,141.40
2017-12-19T07:14:38.121Z,133.30
2017-12-19T07:15:38.143Z,112.20
2017-12-19T07:16:38.152Z,139.20
2017-12-19T07:17:38.176Z,125.60
2017-12-19T07:18:38.190Z,135.00
2017-12-19T07:19:38.212Z,130.00
2017-12-19T07:20:38.225Z,129.40
2017-12-19T07:21:38.248Z,137.60
2017-12-19T07:22:38.260Z,115.60
2017-12-19T07:23:38.283Z,128.70
2017-12-19T07:24:38.296Z,149.40
2017-12-19T07:25:38.324Z,138.80
2017-12-19T07:26:38.335Z,144.60
2017-12-19T07:27:38.352Z,121.20
2017-12-19T07:28:38.373Z,138.70
2017-12-19T07:29:38.393Z,143.20
2017-12-19T07:30:38.409Z,135.50
2017-12-19T07:31:38.423Z,128.30
2017-12-19T07:32:38.447Z,136.10
2017-12-19T07:33:38.464Z,136.00
2017-12-19T07:34:38.478Z,137.10
2017-12-19T07:35:38.494Z,143.40
2017-12-19T07:36:38.519Z,123.90
2017-12-19T07:37:38.538Z,135.10
2017-12-19T07:38:38.550Z,141.00
2017-12-19T07:39:38.572Z,119.60
2017-12-19T07:40:38.592Z,126.00
2017-12-19T07:41:38.609Z,120.20
2017-12-19T07:42:38.629Z,131.60
2017-12-19T07:43:38.647Z,113.40
2017-12-19T07:44:38.658Z,121.80
2017-12-19T07:45:38.681Z,126.50
2017-12-19T07:46:38.700Z,149.10
2017-12-19T07:47:38.720Z,123.70
2017-12-19T07:48:38.732Z,131.60
2017-12-19T07:49:38.749Z,125.40
2017-12-19T07:50:38.774Z,118.20
2017-12-19T07:51:38.792Z,118.50
2017-12-19T07:52:38.804Z,117.60
2017-12-19T07:53:38.820Z,116.00
2017-12-19T07:54:38.846Z,125.00
2017-12-19T07:55:38.858Z,143.80
2017-12-19T07:56:38.881Z,134.30
2017-12-19T07:57:38.897Z,125.70
2017-12-19T07:58:38.918Z,134.30
2017-12-19T07:59:38.931Z,129.60
2017-12-19T08:00:38.955Z,139.30
2017-12-19T08:01:38.966Z,138.10
2017-12-19T08:02:38.990Z,149.10
2017-12-19T08:03:39.005Z,141.90
2017-12-19T08:04:39.028Z,137.40
2017-12-19T08:05:39.040Z,125.30
2017-12-19T08:06:39.063Z,117.60
2017-12-19T08:07:39.076Z,141.40
2017-12-19T08:08:39.101Z,164.40
2017-12-19T08:09:39.112Z,147.50
2017-12-19T08:10:39.136Z,156.50
2017-12-19T08:11:39.156Z,132.20
2017-12-19T08:12:39.171Z,151.40
2017-12-19T08:13:39.185Z,142.90
2017-12-19T08:14:39.209Z,143.00
2017-12-19T08:15:39.228Z,133.60
2017-12-19T08:16:39.241Z,141.30
2017-12-19T08:17:39.260Z,137.60
2017-12-19T08:18:39.283Z,191.10
2017-12-19T08:19:39.302Z,133.10
2017-12-19T08:20:39.314Z,169.40
2017-12-19T08:21:39.332Z,160.50
2017-12-19T08:22:39.356Z,169.50
2017-12-19T08:23:39.374Z,156.10
2017-12-19T08:24:39.389Z,164.30
2017-12-19T08:25:39.405Z,131.80
2017-12-19T08:26:39.430Z,165.70
2017-12-19T08:27:39.449Z,172.80
2017-12-19T08:28:39.462Z,135.30
2017-12-19T08:29:39.478Z,173.80
2017-12-19T08:30:39.503Z,147.90
2017-12-19T08:31:39.523Z,211.30
2017-12-19T08:32:39.536Z,253.20
2017-12-19T08:33:39.552Z,171.80
2017-12-19T08:34:39.577Z,193.60
2017-12-19T08:35:39.598Z,181.30
2017-12-19T08:36:39.609Z,208.70
2017-12-19T08:37:39.627Z,209.50
2017-12-19T08:38:39.650Z,214.60
2017-12-19T08:39:39.669Z,162.70
2017-12-19T08:40:39.683Z,182.70
2017-12-19T08:41:39.701Z,178.70
2017-12-19T08:42:39.724Z,145.40
2017-12-19T08:43:39.743Z,151.60
2017-12-19T08:44:39.756Z,138.10
2017-12-19T08:45:39.781Z,176.70
2017-12-19T08:46:39.794Z,172.40
2017-12-19T08:47:39.819Z,152.50
2017-12-19T08:48:39.829Z,127.60
2017-12-19T08:49:39.899Z,152.10
2017-12-19T08:50:39.868Z,131.00
2017-12-19T08:51:39.892Z,141.00
2017-12-19T08:52:39.905Z,125.00
2017-12-19T08:53:39.929Z,141.40
2017-12-19T08:54:39.941Z,154.40
2017-12-19T08:55:39.966Z,169.40
2017-12-19T08:56:39.979Z,112.30
2017-12-19T08:57:40.003Z,113.60
2017-12-19T08:58:40.017Z,119.50
2017-12-19T08:59:40.035Z,116.90
2017-12-19T09:00:40.059Z,117.10
2017-12-19T09:01:40.075Z,108.50
2017-12-19T09:02:40.095Z,117.30
2017-12-19T09:03:40.110Z,108.60
2017-12-19T09:04:40.134Z,99.50
2017-12-19T09:05:40.147Z,101.10
2017-12-19T09:06:40.175Z,104.10
2017-12-19T09:07:40.189Z,140.20
2017-12-19T09:08:40.203Z,116.50
2017-12-19T09:09:40.226Z,126.60
2017-12-19T09:10:40.240Z,106.40
2017-12-19T09:11:40.264Z,91.00
2017-12-19T09:12:40.278Z,107.10
2017-12-19T09:13:40.303Z,88.60
2017-12-19T09:14:40.315Z,98.20
2017-12-19T09:15:40.402Z,105.90
2017-12-19T09:16:40.354Z,105.50
2017-12-19T09:17:40.371Z,98.60
2017-12-19T09:18:40.395Z,92.50
2017-12-19T09:19:40.413Z,103.70
2017-12-19T09:20:40.426Z,97.20
2017-12-19T09:21:40.444Z,99.20
2017-12-19T09:22:40.470Z,95.00
2017-12-19T09:23:40.482Z,102.30
2017-12-19T09:24:40.507Z,135.30
2017-12-19T09:25:40.519Z,100.80
2017-12-19T09:26:40.544Z,100.70
2017-12-19T09:27:40.558Z,92.30
2017-12-19T09:28:40.628Z,105.00
2017-12-19T09:29:40.596Z,106.50
2017-12-19T09:30:40.620Z,96.20
2017-12-19T09:31:40.638Z,87.90
2017-12-19T09:32:40.651Z,89.30
2017-12-19T09:33:40.669Z,92.70
2017-12-19T09:34:40.694Z,84.40
2017-12-19T09:35:40.712Z,89.90
2017-12-19T09:36:40.731Z,90.00
2017-12-19T09:37:40.745Z,85.40
2017-12-19T09:38:40.769Z,91.60
2017-12-19T09:39:40.782Z,89.00
2017-12-19T09:40:40.806Z,88.20
2017-12-19T09:41:40.824Z,82.40
2017-12-19T09:42:40.838Z,92.60
2017-12-19T09:43:40.857Z,84.90
2017-12-19T09:44:40.882Z,91.90
2017-12-19T09:45:40.899Z,78.90
2017-12-19T09:46:40.912Z,98.40
2017-12-19T09:47:40.938Z,88.10
2017-12-19T09:48:40.951Z,91.50
2017-12-19T09:49:40.976Z,77.90
2017-12-19T09:50:40.987Z,84.20
2017-12-19T09:51:41.012Z,72.30
2017-12-19T09:52:41.024Z,86.00
2017-12-19T09:53:41.050Z,83.60
2017-12-19T09:54:41.064Z,83.60
2017-12-19T09:55:41.087Z,77.90
2017-12-19T09:56:41.099Z,75.10
2017-12-19T09:57:41.118Z,75.30
2017-12-19T09:58:41.143Z,90.50
2017-12-19T09:59:41.162Z,98.10
2017-12-19T10:00:41.174Z,138.10
2017-12-19T10:01:41.196Z,75.70
2017-12-19T10:02:41.219Z,83.80
2017-12-19T10:03:41.238Z,82.80
2017-12-19T10:04:41.251Z,100.10
2017-12-19T10:05:41.275Z,87.10
2017-12-19T10:06:41.294Z,79.10
2017-12-19T10:07:41.308Z,84.50
2017-12-19T10:08:41.328Z,76.90
2017-12-19T10:09:41.344Z,75.30
2017-12-19T10:10:41.372Z,80.20
2017-12-19T10:11:41.384Z,79.10
2017-12-19T10:12:41.408Z,70.40
2017-12-19T10:13:41.427Z,71.80
2017-12-19T10:14:41.441Z,68.70
2017-12-19T10:15:41.462Z,68.40
2017-12-19T10:16:41.485Z,66.20
2017-12-19T10:17:41.504Z,78.10
2017-12-19T10:18:41.518Z,77.10
2017-12-19T10:19:41.537Z,72.20
2017-12-19T10:20:41.562Z,81.80
2017-12-19T10:21:41.579Z,65.60
2017-12-19T10:22:41.598Z,61.90
2017-12-19T10:23:41.619Z,59.50
2017-12-19T10:24:41.636Z,67.70
2017-12-19T10:25:41.648Z,62.30
2017-12-19T10:26:41.675Z,59.00
2017-12-19T10:27:41.694Z,66.70
2017-12-19T10:28:41.707Z,62.50
2017-12-19T10:29:41.756Z,64.80
2017-12-19T10:30:41.750Z,59.40
2017-12-19T10:31:41.769Z,64.70
2017-12-19T10:32:41.784Z,67.00
2017-12-19T10:33:41.801Z,54.20
2017-12-19T10:34:41.828Z,60.30
2017-12-19T10:35:41.845Z,57.00
2017-12-19T10:36:41.859Z,65.00
2017-12-19T10:37:41.876Z,64.00
2017-12-19T10:38:41.903Z,62.50
2017-12-19T10:39:41.916Z,63.60
2017-12-19T10:40:41.988Z,65.90
2017-12-19T10:41:41.952Z,66.10
2017-12-19T10:42:41.976Z,60.60
2017-12-19T10:43:41.992Z,60.10
2017-12-19T10:44:42.018Z,54.90
2017-12-19T10:45:42.029Z,50.10
2017-12-19T10:46:42.053Z,50.50
2017-12-19T10:47:42.068Z,53.40
2017-12-19T10:48:42.093Z,57.20
2017-12-19T10:49:42.106Z,60.80
2017-12-19T10:50:42.130Z,61.10
2017-12-19T10:51:42.144Z,57.20
2017-12-19T10:52:42.164Z,55.90
2017-12-19T10:53:42.188Z,55.80
2017-12-19T10:54:42.201Z,58.30
2017-12-19T10:55:42.221Z,52.60
2017-12-19T10:56:42.246Z,53.60
2017-12-19T10:57:42.264Z,51.10
2017-12-19T10:58:42.283Z,51.70
2017-12-19T10:59:42.302Z,49.60
2017-12-19T11:00:42.315Z,58.00
2017-12-19T11:01:42.341Z,54.00
2017-12-19T11:02:42.353Z,54.90
2017-12-19T11:03:42.382Z,54.60
2017-12-19T11:04:42.393Z,51.10
2017-12-19T11:05:42.416Z,59.90
2017-12-19T11:06:42.431Z,48.80
2017-12-19T11:07:42.456Z,46.60
2017-12-19T11:08:42.470Z,53.70
2017-12-19T11:09:42.553Z,54.50
2017-12-19T11:10:42.514Z,57.10
2017-12-19T11:11:42.526Z,58.50
2017-12-19T11:12:42.547Z,63.00
2017-12-19T11:13:42.565Z,57.40
2017-12-19T11:14:42.590Z,52.30
2017-12-19T11:15:42.609Z,45.80
2017-12-19T11:16:42.623Z,46.70
2017-12-19T11:17:42.643Z,45.20
2017-12-19T11:18:42.667Z,47.80
2017-12-19T11:19:42.688Z,46.50
2017-12-19T11:20:42.702Z,38.40
2017-12-19T11:21:42.719Z,45.90
2017-12-19T11:22:42.746Z,46.90
2017-12-19T11:23:42.760Z,50.10
2017-12-19T11:24:42.786Z,43.40
2017-12-19T11:25:42.803Z,51.00
2017-12-19T11:26:42.821Z,53.70
2017-12-19T11:27:42.841Z,51.60
2017-12-19T11:28:42.859Z,53.30
2017-12-19T11:29:42.874Z,49.10
2017-12-19T11:30:42.901Z,55.70
2017-12-19T11:31:42.913Z,57.80
2017-12-19T11:32:42.938Z,62.80
2017-12-19T11:33:42.950Z,61.70
2017-12-19T11:34:43.039Z,61.20
2017-12-19T11:35:42.991Z,59.50
2017-12-19T11:36:43.015Z,59.00
2017-12-19T11:37:43.582Z,62.20
2017-12-19T11:38:43.051Z,62.30
2017-12-19T11:39:43.074Z,63.80
2017-12-19T11:40:43.086Z,54.40
2017-12-19T11:41:43.106Z,64.10
2017-12-19T11:42:43.125Z,57.30
2017-12-19T11:43:43.144Z,63.60
2017-12-19T11:44:43.164Z,69.90
2017-12-19T11:45:43.189Z,62.90
2017-12-19T11:46:43.202Z,70.70
2017-12-19T11:47:43.227Z,61.40
2017-12-19T11:48:43.241Z,58.20
2017-12-19T11:49:43.265Z,62.70
2017-12-19T11:50:43.279Z,62.40
2017-12-19T11:51:43.305Z,64.80
2017-12-19T11:52:43.338Z,71.50
2017-12-19T11:53:43.351Z,63.10
2017-12-19T11:54:43.357Z,63.60
2017-12-19T11:55:43.381Z,61.30
2017-12-19T11:56:43.396Z,51.60
2017-12-19T11:57:43.420Z,59.00
2017-12-19T11:58:43.433Z,62.90
2017-12-19T11:59:43.453Z,55.80
2017-12-19T12:00:43.474Z,56.80
2017-12-19T12:01:43.496Z,57.60
2017-12-19T12:02:43.517Z,61.40
2017-12-19T12:03:43.538Z,59.60
2017-12-19T12:04:43.578Z,60.10
2017-12-19T12:05:43.569Z,53.40
2017-12-19T12:06:43.594Z,56.60
2017-12-19T12:07:43.615Z,55.10
2017-12-19T12:08:43.630Z,53.70
2017-12-19T12:09:43.647Z,59.50
2017-12-19T12:10:43.681Z,52.60
2017-12-19T12:11:43.691Z,57.00
2017-12-19T12:12:43.720Z,53.90
2017-12-19T12:13:43.725Z,55.80
2017-12-19T12:14:43.750Z,57.50
2017-12-19T12:15:43.819Z,60.80
2017-12-19T12:16:43.801Z,59.20
2017-12-19T12:17:43.803Z,57.70
2017-12-19T12:18:43.828Z,58.70
2017-12-19T12:19:43.843Z,60.20
2017-12-19T12:20:43.868Z,63.80
2017-12-19T12:21:43.889Z,62.90
2017-12-19T12:22:43.900Z,57.40
2017-12-19T12:23:43.921Z,66.50
2017-12-19T12:24:43.945Z,75.60
2017-12-19T12:25:43.964Z,64.60
2017-12-19T12:26:43.978Z,62.60
2017-12-19T12:27:44.004Z,66.60
2017-12-19T12:28:44.020Z,68.50
2017-12-19T12:29:44.041Z,61.20
2017-12-19T12:30:44.057Z,70.90
2017-12-19T12:31:44.082Z,64.10
2017-12-19T12:32:44.095Z,70.70
2017-12-19T12:33:44.119Z,76.30
2017-12-19T12:34:44.137Z,64.40
2017-12-19T12:35:44.158Z,63.60
2017-12-19T12:36:44.176Z,65.30
2017-12-19T12:37:44.191Z,66.20
2017-12-19T12:38:44.218Z,63.70
2017-12-19T12:39:44.238Z,59.80
2017-12-19T12:40:44.252Z,68.00
2017-12-19T12:41:44.271Z,61.10
2017-12-19T12:42:44.297Z,59.40
2017-12-19T12:43:44.311Z,61.80